sensor_id;sensor_type;location;lat;lon;timestamp;temperature;humidity
46720;DHT22;32452;51.382;-0.002;2022-07-18T00:00:29;21.50;49.60
46720;DHT22;32452;51.382;-0.002;2022-07-18T00:03:15;21.50;49.70
46720;DHT22;32452;51.382;-0.002;2022-07-18T00:06:01;21.40;49.90
46720;DHT22;32452;51.382;-0.002;2022-07-18T00:08:47;21.40;50.10
46720;DHT22;32452;51.382;-0.002;2022-07-18T00:11:32;21.40;50.30
46720;DHT22;32452;51.382;-0.002;2022-07-18T00:14:19;21.40;50.50
46720;DHT22;32452;51.382;-0.002;2022-07-18T00:17:05;21.40;50.60
46720;DHT22;32452;51.382;-0.002;2022-07-18T00:19:51;21.40;50.40
46720;DHT22;32452;51.382;-0.002;2022-07-18T00:22:37;21.40;50.30
46720;DHT22;32452;51.382;-0.002;2022-07-18T00:25:23;21.40;50.30
46720;DHT22;32452;51.382;-0.002;2022-07-18T00:28:09;21.40;50.10
46720;DHT22;32452;51.382;-0.002;2022-07-18T00:30:57;21.30;49.90
46720;DHT22;32452;51.382;-0.002;2022-07-18T00:33:43;21.30;49.90
46720;DHT22;32452;51.382;-0.002;2022-07-18T00:36:29;21.30;50.00
46720;DHT22;32452;51.382;-0.002;2022-07-18T00:39:15;21.20;50.10
46720;DHT22;32452;51.382;-0.002;2022-07-18T00:42:00;21.20;50.20
46720;DHT22;32452;51.382;-0.002;2022-07-18T00:44:56;21.20;50.30
46720;DHT22;32452;51.382;-0.002;2022-07-18T00:47:58;21.20;50.50
46720;DHT22;32452;51.382;-0.002;2022-07-18T00:50:52;21.10;50.50
46720;DHT22;32452;51.382;-0.002;2022-07-18T00:53:37;21.10;50.70
46720;DHT22;32452;51.382;-0.002;2022-07-18T00:56:23;21.00;50.70
46720;DHT22;32452;51.382;-0.002;2022-07-18T00:59:10;21.00;50.90
46720;DHT22;32452;51.382;-0.002;2022-07-18T01:01:55;20.90;51.00
46720;DHT22;32452;51.382;-0.002;2022-07-18T01:04:41;20.90;51.10
46720;DHT22;32452;51.382;-0.002;2022-07-18T01:07:28;20.90;51.20
46720;DHT22;32452;51.382;-0.002;2022-07-18T01:10:18;20.90;51.50
46720;DHT22;32452;51.382;-0.002;2022-07-18T01:13:04;20.90;51.50
46720;DHT22;32452;51.382;-0.002;2022-07-18T01:15:53;20.80;51.50
46720;DHT22;32452;51.382;-0.002;2022-07-18T01:18:44;20.80;51.50
46720;DHT22;32452;51.382;-0.002;2022-07-18T01:21:30;20.70;51.70
46720;DHT22;32452;51.382;-0.002;2022-07-18T01:24:15;20.70;51.80
46720;DHT22;32452;51.382;-0.002;2022-07-18T01:27:01;20.70;51.90
46720;DHT22;32452;51.382;-0.002;2022-07-18T01:29:48;20.60;52.00
46720;DHT22;32452;51.382;-0.002;2022-07-18T01:32:34;20.60;52.10
46720;DHT22;32452;51.382;-0.002;2022-07-18T01:35:22;20.60;52.00
46720;DHT22;32452;51.382;-0.002;2022-07-18T01:38:07;20.60;51.90
46720;DHT22;32452;51.382;-0.002;2022-07-18T01:40:53;20.60;51.90
46720;DHT22;32452;51.382;-0.002;2022-07-18T01:43:41;20.60;52.10
46720;DHT22;32452;51.382;-0.002;2022-07-18T01:46:27;20.60;52.20
46720;DHT22;32452;51.382;-0.002;2022-07-18T01:49:13;20.60;52.30
46720;DHT22;32452;51.382;-0.002;2022-07-18T01:52:01;20.60;52.20
46720;DHT22;32452;51.382;-0.002;2022-07-18T01:54:46;20.50;51.90
46720;DHT22;32452;51.382;-0.002;2022-07-18T01:57:33;20.60;51.60
46720;DHT22;32452;51.382;-0.002;2022-07-18T02:00:19;20.60;51.40
46720;DHT22;32452;51.382;-0.002;2022-07-18T02:03:04;20.60;51.10
46720;DHT22;32452;51.382;-0.002;2022-07-18T02:05:51;20.70;50.90
46720;DHT22;32452;51.382;-0.002;2022-07-18T02:08:39;20.70;50.80
46720;DHT22;32452;51.382;-0.002;2022-07-18T02:11:25;20.70;50.80
46720;DHT22;32452;51.382;-0.002;2022-07-18T02:14:10;20.70;51.10
46720;DHT22;32452;51.382;-0.002;2022-07-18T02:16:56;20.70;51.30
46720;DHT22;32452;51.382;-0.002;2022-07-18T02:19:41;20.70;51.50
46720;DHT22;32452;51.382;-0.002;2022-07-18T02:22:27;20.60;51.60
46720;DHT22;32452;51.382;-0.002;2022-07-18T02:25:13;20.60;51.60
46720;DHT22;32452;51.382;-0.002;2022-07-18T02:27:58;20.60;51.40
46720;DHT22;32452;51.382;-0.002;2022-07-18T02:30:43;20.50;51.50
46720;DHT22;32452;51.382;-0.002;2022-07-18T02:33:29;20.50;51.40
46720;DHT22;32452;51.382;-0.002;2022-07-18T02:36:14;20.50;51.60
46720;DHT22;32452;51.382;-0.002;2022-07-18T02:39:00;20.50;51.70
46720;DHT22;32452;51.382;-0.002;2022-07-18T02:41:46;20.50;51.50
46720;DHT22;32452;51.382;-0.002;2022-07-18T02:44:32;20.50;51.20
46720;DHT22;32452;51.382;-0.002;2022-07-18T02:47:17;20.50;50.90
46720;DHT22;32452;51.382;-0.002;2022-07-18T02:50:03;20.60;50.70
46720;DHT22;32452;51.382;-0.002;2022-07-18T02:52:49;20.70;50.50
46720;DHT22;32452;51.382;-0.002;2022-07-18T02:55:38;20.80;50.30
46720;DHT22;32452;51.382;-0.002;2022-07-18T02:58:30;20.80;50.00
46720;DHT22;32452;51.382;-0.002;2022-07-18T03:01:17;20.90;50.50
46720;DHT22;32452;51.382;-0.002;2022-07-18T03:04:02;21.00;49.80
46720;DHT22;32452;51.382;-0.002;2022-07-18T03:06:49;21.00;49.70
46720;DHT22;32452;51.382;-0.002;2022-07-18T03:09:35;21.00;49.70
46720;DHT22;32452;51.382;-0.002;2022-07-18T03:12:23;21.00;49.70
46720;DHT22;32452;51.382;-0.002;2022-07-18T03:15:10;21.10;49.90
46720;DHT22;32452;51.382;-0.002;2022-07-18T03:17:58;21.00;49.90
46720;DHT22;32452;51.382;-0.002;2022-07-18T03:20:44;21.00;50.10
46720;DHT22;32452;51.382;-0.002;2022-07-18T03:23:30;21.00;50.10
46720;DHT22;32452;51.382;-0.002;2022-07-18T03:26:15;21.00;50.10
46720;DHT22;32452;51.382;-0.002;2022-07-18T03:29:01;21.00;50.30
46720;DHT22;32452;51.382;-0.002;2022-07-18T03:31:46;21.00;50.90
46720;DHT22;32452;51.382;-0.002;2022-07-18T03:34:32;20.80;51.50
46720;DHT22;32452;51.382;-0.002;2022-07-18T03:37:18;20.70;52.10
46720;DHT22;32452;51.382;-0.002;2022-07-18T03:40:04;20.60;52.50
46720;DHT22;32452;51.382;-0.002;2022-07-18T03:42:49;20.50;52.80
46720;DHT22;32452;51.382;-0.002;2022-07-18T03:45:36;20.50;52.90
46720;DHT22;32452;51.382;-0.002;2022-07-18T03:48:31;20.40;52.90
46720;DHT22;32452;51.382;-0.002;2022-07-18T03:51:18;20.40;53.00
46720;DHT22;32452;51.382;-0.002;2022-07-18T03:54:07;20.30;53.30
46720;DHT22;32452;51.382;-0.002;2022-07-18T03:56:54;20.30;53.70
46720;DHT22;32452;51.382;-0.002;2022-07-18T03:59:40;20.30;53.90
46720;DHT22;32452;51.382;-0.002;2022-07-18T04:02:26;20.20;54.10
46720;DHT22;32452;51.382;-0.002;2022-07-18T04:05:12;20.10;54.40
46720;DHT22;32452;51.382;-0.002;2022-07-18T04:07:58;20.10;54.70
46720;DHT22;32452;51.382;-0.002;2022-07-18T04:10:44;20.00;54.60
46720;DHT22;32452;51.382;-0.002;2022-07-18T04:13:30;20.00;54.50
46720;DHT22;32452;51.382;-0.002;2022-07-18T04:16:16;20.00;54.90
46720;DHT22;32452;51.382;-0.002;2022-07-18T04:19:01;20.10;54.10
46720;DHT22;32452;51.382;-0.002;2022-07-18T04:21:47;20.20;54.00
46720;DHT22;32452;51.382;-0.002;2022-07-18T04:24:32;20.20;53.70
46720;DHT22;32452;51.382;-0.002;2022-07-18T04:27:18;20.30;53.30
46720;DHT22;32452;51.382;-0.002;2022-07-18T04:30:04;20.40;53.00
46720;DHT22;32452;51.382;-0.002;2022-07-18T04:32:50;20.50;52.50
46720;DHT22;32452;51.382;-0.002;2022-07-18T04:35:39;20.60;52.10
46720;DHT22;32452;51.382;-0.002;2022-07-18T04:38:26;20.70;51.70
46720;DHT22;32452;51.382;-0.002;2022-07-18T04:41:11;20.80;51.30
46720;DHT22;32452;51.382;-0.002;2022-07-18T04:43:57;20.90;51.10
46720;DHT22;32452;51.382;-0.002;2022-07-18T04:46:43;21.00;50.70
46720;DHT22;32452;51.382;-0.002;2022-07-18T04:49:28;21.10;50.40
46720;DHT22;32452;51.382;-0.002;2022-07-18T04:52:14;21.20;50.10
46720;DHT22;32452;51.382;-0.002;2022-07-18T04:55:00;21.30;49.70
46720;DHT22;32452;51.382;-0.002;2022-07-18T04:57:46;21.40;49.20
46720;DHT22;32452;51.382;-0.002;2022-07-18T05:00:31;21.50;48.80
46720;DHT22;32452;51.382;-0.002;2022-07-18T05:03:17;21.70;48.20
46720;DHT22;32452;51.382;-0.002;2022-07-18T05:06:02;21.80;47.80
46720;DHT22;32452;51.382;-0.002;2022-07-18T05:08:48;22.00;47.50
46720;DHT22;32452;51.382;-0.002;2022-07-18T05:11:33;22.10;47.10
46720;DHT22;32452;51.382;-0.002;2022-07-18T05:14:19;22.20;47.00
46720;DHT22;32452;51.382;-0.002;2022-07-18T05:17:05;22.30;46.90
46720;DHT22;32452;51.382;-0.002;2022-07-18T05:19:51;22.40;46.70
46720;DHT22;32452;51.382;-0.002;2022-07-18T05:22:37;22.50;46.50
46720;DHT22;32452;51.382;-0.002;2022-07-18T05:25:23;22.50;46.20
46720;DHT22;32452;51.382;-0.002;2022-07-18T05:28:08;22.50;46.20
46720;DHT22;32452;51.382;-0.002;2022-07-18T05:30:54;22.60;46.20
46720;DHT22;32452;51.382;-0.002;2022-07-18T05:33:40;22.60;46.10
46720;DHT22;32452;51.382;-0.002;2022-07-18T05:36:26;22.70;46.00
46720;DHT22;32452;51.382;-0.002;2022-07-18T05:39:11;22.70;46.00
46720;DHT22;32452;51.382;-0.002;2022-07-18T05:41:57;22.80;45.80
46720;DHT22;32452;51.382;-0.002;2022-07-18T05:44:42;22.80;45.70
46720;DHT22;32452;51.382;-0.002;2022-07-18T05:47:28;22.90;46.50
46720;DHT22;32452;51.382;-0.002;2022-07-18T05:50:14;22.90;47.00
46720;DHT22;32452;51.382;-0.002;2022-07-18T05:52:59;23.00;47.20
46720;DHT22;32452;51.382;-0.002;2022-07-18T05:55:45;23.00;47.50
46720;DHT22;32452;51.382;-0.002;2022-07-18T05:58:30;23.20;47.80
46720;DHT22;32452;51.382;-0.002;2022-07-18T06:01:16;23.20;47.50
46720;DHT22;32452;51.382;-0.002;2022-07-18T06:04:05;23.30;47.90
46720;DHT22;32452;51.382;-0.002;2022-07-18T06:06:51;23.40;48.30
46720;DHT22;32452;51.382;-0.002;2022-07-18T06:09:36;23.50;48.70
46720;DHT22;32452;51.382;-0.002;2022-07-18T06:12:22;23.60;49.10
46720;DHT22;32452;51.382;-0.002;2022-07-18T06:15:08;23.70;49.10
46720;DHT22;32452;51.382;-0.002;2022-07-18T06:17:54;23.90;48.90
46720;DHT22;32452;51.382;-0.002;2022-07-18T06:20:39;24.10;48.60
46720;DHT22;32452;51.382;-0.002;2022-07-18T06:23:25;24.30;48.10
46720;DHT22;32452;51.382;-0.002;2022-07-18T06:26:10;24.60;47.70
46720;DHT22;32452;51.382;-0.002;2022-07-18T06:28:56;25.10;46.80
46720;DHT22;32452;51.382;-0.002;2022-07-18T06:31:42;25.50;46.20
46720;DHT22;32452;51.382;-0.002;2022-07-18T06:34:28;26.10;45.30
46720;DHT22;32452;51.382;-0.002;2022-07-18T06:37:13;26.60;44.50
46720;DHT22;32452;51.382;-0.002;2022-07-18T06:39:59;27.40;43.20
46720;DHT22;32452;51.382;-0.002;2022-07-18T06:42:47;27.90;42.10
46720;DHT22;32452;51.382;-0.002;2022-07-18T06:45:33;28.30;41.30
46720;DHT22;32452;51.382;-0.002;2022-07-18T06:48:19;28.40;40.70
46720;DHT22;32452;51.382;-0.002;2022-07-18T06:51:05;28.60;40.40
46720;DHT22;32452;51.382;-0.002;2022-07-18T06:53:51;28.80;39.80
46720;DHT22;32452;51.382;-0.002;2022-07-18T06:56:36;28.80;39.60
46720;DHT22;32452;51.382;-0.002;2022-07-18T06:59:22;28.90;39.40
46720;DHT22;32452;51.382;-0.002;2022-07-18T07:02:08;29.20;38.70
46720;DHT22;32452;51.382;-0.002;2022-07-18T07:04:54;29.90;38.80
46720;DHT22;32452;51.382;-0.002;2022-07-18T07:07:39;30.60;37.00
46720;DHT22;32452;51.382;-0.002;2022-07-18T07:10:32;31.20;35.70
46720;DHT22;32452;51.382;-0.002;2022-07-18T07:13:18;31.40;35.10
46720;DHT22;32452;51.382;-0.002;2022-07-18T07:16:04;31.70;34.40
46720;DHT22;32452;51.382;-0.002;2022-07-18T07:18:49;32.20;33.60
46720;DHT22;32452;51.382;-0.002;2022-07-18T07:21:34;32.70;32.10
46720;DHT22;32452;51.382;-0.002;2022-07-18T07:24:21;33.00;31.10
46720;DHT22;32452;51.382;-0.002;2022-07-18T07:27:07;33.40;30.90
46720;DHT22;32452;51.382;-0.002;2022-07-18T07:29:52;33.70;30.40
46720;DHT22;32452;51.382;-0.002;2022-07-18T07:32:40;34.10;29.90
46720;DHT22;32452;51.382;-0.002;2022-07-18T07:35:27;34.50;29.30
46720;DHT22;32452;51.382;-0.002;2022-07-18T07:38:12;34.80;28.90
46720;DHT22;32452;51.382;-0.002;2022-07-18T07:41:03;34.90;28.60
46720;DHT22;32452;51.382;-0.002;2022-07-18T07:43:48;35.10;28.20
46720;DHT22;32452;51.382;-0.002;2022-07-18T07:46:34;35.20;28.00
46720;DHT22;32452;51.382;-0.002;2022-07-18T07:49:20;35.40;27.70
46720;DHT22;32452;51.382;-0.002;2022-07-18T07:52:05;35.60;27.40
46720;DHT22;32452;51.382;-0.002;2022-07-18T07:54:51;35.80;27.20
46720;DHT22;32452;51.382;-0.002;2022-07-18T07:57:37;35.80;26.80
46720;DHT22;32452;51.382;-0.002;2022-07-18T08:00:23;36.00;26.90
46720;DHT22;32452;51.382;-0.002;2022-07-18T08:03:08;36.10;26.80
46720;DHT22;32452;51.382;-0.002;2022-07-18T08:05:55;36.40;26.40
46720;DHT22;32452;51.382;-0.002;2022-07-18T08:08:41;36.50;26.10
46720;DHT22;32452;51.382;-0.002;2022-07-18T08:11:27;36.60;25.90
46720;DHT22;32452;51.382;-0.002;2022-07-18T08:14:12;36.60;25.60
46720;DHT22;32452;51.382;-0.002;2022-07-18T08:16:58;36.60;25.50
46720;DHT22;32452;51.382;-0.002;2022-07-18T08:19:44;36.60;25.50
46720;DHT22;32452;51.382;-0.002;2022-07-18T08:22:29;36.70;25.10
46720;DHT22;32452;51.382;-0.002;2022-07-18T08:25:15;36.70;24.90
46720;DHT22;32452;51.382;-0.002;2022-07-18T08:28:01;36.70;24.80
46720;DHT22;32452;51.382;-0.002;2022-07-18T08:30:47;36.80;24.90
46720;DHT22;32452;51.382;-0.002;2022-07-18T08:33:33;36.90;24.60
46720;DHT22;32452;51.382;-0.002;2022-07-18T08:36:18;37.00;24.80
46720;DHT22;32452;51.382;-0.002;2022-07-18T08:39:06;37.10;24.80
46720;DHT22;32452;51.382;-0.002;2022-07-18T08:41:51;37.20;24.60
46720;DHT22;32452;51.382;-0.002;2022-07-18T08:44:42;37.30;24.60
46720;DHT22;32452;51.382;-0.002;2022-07-18T08:47:29;37.50;24.30
46720;DHT22;32452;51.382;-0.002;2022-07-18T08:50:15;37.70;24.40
46720;DHT22;32452;51.382;-0.002;2022-07-18T08:53:01;37.80;24.10
46720;DHT22;32452;51.382;-0.002;2022-07-18T08:55:48;38.00;23.70
46720;DHT22;32452;51.382;-0.002;2022-07-18T08:58:33;38.30;23.80
46720;DHT22;32452;51.382;-0.002;2022-07-18T09:01:30;38.60;23.30
46720;DHT22;32452;51.382;-0.002;2022-07-18T09:04:39;38.70;23.10
46720;DHT22;32452;51.382;-0.002;2022-07-18T09:07:31;38.80;22.60
46720;DHT22;32452;51.382;-0.002;2022-07-18T09:10:16;38.90;22.30
46720;DHT22;32452;51.382;-0.002;2022-07-18T09:13:02;38.80;22.40
46720;DHT22;32452;51.382;-0.002;2022-07-18T09:16:10;38.80;22.30
46720;DHT22;32452;51.382;-0.002;2022-07-18T09:18:56;38.90;22.20
46720;DHT22;32452;51.382;-0.002;2022-07-18T09:21:50;38.80;22.30
46720;DHT22;32452;51.382;-0.002;2022-07-18T09:24:59;38.90;22.20
46720;DHT22;32452;51.382;-0.002;2022-07-18T09:27:52;39.10;22.30
46720;DHT22;32452;51.382;-0.002;2022-07-18T09:30:38;39.10;22.10
46720;DHT22;32452;51.382;-0.002;2022-07-18T09:33:23;39.20;22.30
46720;DHT22;32452;51.382;-0.002;2022-07-18T09:36:09;39.30;22.10
46720;DHT22;32452;51.382;-0.002;2022-07-18T09:38:56;39.40;22.10
46720;DHT22;32452;51.382;-0.002;2022-07-18T09:41:41;39.30;22.10
46720;DHT22;32452;51.382;-0.002;2022-07-18T09:44:27;39.30;21.90
46720;DHT22;32452;51.382;-0.002;2022-07-18T09:47:13;39.30;22.10
46720;DHT22;32452;51.382;-0.002;2022-07-18T09:49:58;39.30;21.90
46720;DHT22;32452;51.382;-0.002;2022-07-18T09:52:44;39.30;22.10
46720;DHT22;32452;51.382;-0.002;2022-07-18T09:55:30;39.20;22.40
46720;DHT22;32452;51.382;-0.002;2022-07-18T09:58:29;39.10;22.30
46720;DHT22;32452;51.382;-0.002;2022-07-18T10:01:15;39.00;22.40
46720;DHT22;32452;51.382;-0.002;2022-07-18T10:04:02;39.20;22.40
46720;DHT22;32452;51.382;-0.002;2022-07-18T10:06:48;39.20;22.30
46720;DHT22;32452;51.382;-0.002;2022-07-18T10:09:33;39.10;21.90
46720;DHT22;32452;51.382;-0.002;2022-07-18T10:12:19;39.20;22.00
46720;DHT22;32452;51.382;-0.002;2022-07-18T10:15:05;39.10;22.00
46720;DHT22;32452;51.382;-0.002;2022-07-18T10:17:51;39.00;21.90
46720;DHT22;32452;51.382;-0.002;2022-07-18T10:20:44;39.10;22.10
46720;DHT22;32452;51.382;-0.002;2022-07-18T10:23:46;39.30;22.20
46720;DHT22;32452;51.382;-0.002;2022-07-18T10:26:37;39.40;21.80
46720;DHT22;32452;51.382;-0.002;2022-07-18T10:29:22;39.20;21.80
46720;DHT22;32452;51.382;-0.002;2022-07-18T10:32:09;39.20;22.10
46720;DHT22;32452;51.382;-0.002;2022-07-18T10:34:55;39.30;22.30
46720;DHT22;32452;51.382;-0.002;2022-07-18T10:37:41;39.40;22.40
46720;DHT22;32452;51.382;-0.002;2022-07-18T10:40:29;39.60;22.10
46720;DHT22;32452;51.382;-0.002;2022-07-18T10:46:16;39.50;21.40
46720;DHT22;32452;51.382;-0.002;2022-07-18T10:49:01;39.50;21.90
46720;DHT22;32452;51.382;-0.002;2022-07-18T10:51:47;39.50;22.00
46720;DHT22;32452;51.382;-0.002;2022-07-18T10:54:32;39.60;21.90
46720;DHT22;32452;51.382;-0.002;2022-07-18T10:57:18;39.80;22.00
46720;DHT22;32452;51.382;-0.002;2022-07-18T11:00:05;39.80;21.50
46720;DHT22;32452;51.382;-0.002;2022-07-18T11:05:49;39.90;21.30
46720;DHT22;32452;51.382;-0.002;2022-07-18T11:08:35;39.90;21.20
46720;DHT22;32452;51.382;-0.002;2022-07-18T11:11:20;40.00;21.20
46720;DHT22;32452;51.382;-0.002;2022-07-18T11:14:06;40.10;21.00
46720;DHT22;32452;51.382;-0.002;2022-07-18T11:17:04;40.00;21.30
46720;DHT22;32452;51.382;-0.002;2022-07-18T11:20:28;40.10;21.40
46720;DHT22;32452;51.382;-0.002;2022-07-18T11:23:18;40.10;21.10
46720;DHT22;32452;51.382;-0.002;2022-07-18T11:26:04;39.90;20.60
46720;DHT22;32452;51.382;-0.002;2022-07-18T11:29:07;39.70;20.70
46720;DHT22;32452;51.382;-0.002;2022-07-18T11:32:00;39.40;20.10
46720;DHT22;32452;51.382;-0.002;2022-07-18T11:34:51;39.20;20.50
46720;DHT22;32452;51.382;-0.002;2022-07-18T11:37:36;39.20;21.00
46720;DHT22;32452;51.382;-0.002;2022-07-18T11:40:22;39.10;21.20
46720;DHT22;32452;51.382;-0.002;2022-07-18T11:43:08;39.10;21.00
46720;DHT22;32452;51.382;-0.002;2022-07-18T11:46:10;39.10;21.00
46720;DHT22;32452;51.382;-0.002;2022-07-18T11:49:03;38.90;21.10
46720;DHT22;32452;51.382;-0.002;2022-07-18T11:51:49;38.70;21.20
46720;DHT22;32452;51.382;-0.002;2022-07-18T11:54:34;38.70;21.20
46720;DHT22;32452;51.382;-0.002;2022-07-18T11:57:27;38.60;21.00
46720;DHT22;32452;51.382;-0.002;2022-07-18T12:00:19;38.40;21.50
46720;DHT22;32452;51.382;-0.002;2022-07-18T12:03:11;38.20;22.00
46720;DHT22;32452;51.382;-0.002;2022-07-18T12:05:58;38.20;22.50
46720;DHT22;32452;51.382;-0.002;2022-07-18T12:08:58;38.20;23.00
46720;DHT22;32452;51.382;-0.002;2022-07-18T12:11:48;38.20;22.60
46720;DHT22;32452;51.382;-0.002;2022-07-18T12:15:01;38.10;22.80
46720;DHT22;32452;51.382;-0.002;2022-07-18T12:17:48;38.10;22.50
46720;DHT22;32452;51.382;-0.002;2022-07-18T12:20:36;38.00;22.20
46720;DHT22;32452;51.382;-0.002;2022-07-18T12:23:27;38.00;21.90
46720;DHT22;32452;51.382;-0.002;2022-07-18T12:26:30;37.80;21.60
46720;DHT22;32452;51.382;-0.002;2022-07-18T12:29:31;37.70;22.20
46720;DHT22;32452;51.382;-0.002;2022-07-18T12:32:16;37.60;21.80
46720;DHT22;32452;51.382;-0.002;2022-07-18T12:35:09;37.50;21.60
46720;DHT22;32452;51.382;-0.002;2022-07-18T12:38:14;37.40;21.90
46720;DHT22;32452;51.382;-0.002;2022-07-18T12:41:00;37.40;21.80
46720;DHT22;32452;51.382;-0.002;2022-07-18T12:43:47;37.30;21.60
46720;DHT22;32452;51.382;-0.002;2022-07-18T12:46:33;37.20;21.60
46720;DHT22;32452;51.382;-0.002;2022-07-18T12:49:18;37.10;21.50
46720;DHT22;32452;51.382;-0.002;2022-07-18T12:52:04;37.10;21.80
46720;DHT22;32452;51.382;-0.002;2022-07-18T12:54:50;37.20;22.10
46720;DHT22;32452;51.382;-0.002;2022-07-18T12:57:36;37.20;21.70
46720;DHT22;32452;51.382;-0.002;2022-07-18T13:00:21;37.20;21.40
46720;DHT22;32452;51.382;-0.002;2022-07-18T13:03:07;37.20;21.70
46720;DHT22;32452;51.382;-0.002;2022-07-18T13:05:52;37.10;21.70
46720;DHT22;32452;51.382;-0.002;2022-07-18T13:08:38;37.20;21.60
46720;DHT22;32452;51.382;-0.002;2022-07-18T13:11:24;37.10;21.60
46720;DHT22;32452;51.382;-0.002;2022-07-18T13:14:17;37.10;22.20
46720;DHT22;32452;51.382;-0.002;2022-07-18T13:17:03;37.10;21.90
46720;DHT22;32452;51.382;-0.002;2022-07-18T13:19:49;37.10;21.80
46720;DHT22;32452;51.382;-0.002;2022-07-18T13:22:35;37.10;21.80
46720;DHT22;32452;51.382;-0.002;2022-07-18T13:25:23;37.10;21.90
46720;DHT22;32452;51.382;-0.002;2022-07-18T13:28:09;37.20;21.90
46720;DHT22;32452;51.382;-0.002;2022-07-18T13:30:55;37.20;22.10
46720;DHT22;32452;51.382;-0.002;2022-07-18T13:33:41;37.20;21.80
46720;DHT22;32452;51.382;-0.002;2022-07-18T13:36:26;37.10;21.70
46720;DHT22;32452;51.382;-0.002;2022-07-18T13:39:12;37.10;21.60
46720;DHT22;32452;51.382;-0.002;2022-07-18T13:41:58;37.20;21.40
46720;DHT22;32452;51.382;-0.002;2022-07-18T13:44:47;37.20;21.50
46720;DHT22;32452;51.382;-0.002;2022-07-18T13:47:33;37.30;22.00
46720;DHT22;32452;51.382;-0.002;2022-07-18T13:50:18;37.30;21.50
46720;DHT22;32452;51.382;-0.002;2022-07-18T13:53:04;37.40;21.50
46720;DHT22;32452;51.382;-0.002;2022-07-18T13:55:50;37.40;21.20
46720;DHT22;32452;51.382;-0.002;2022-07-18T13:58:35;37.40;21.20
46720;DHT22;32452;51.382;-0.002;2022-07-18T14:01:21;37.40;21.30
46720;DHT22;32452;51.382;-0.002;2022-07-18T14:04:07;37.30;21.20
46720;DHT22;32452;51.382;-0.002;2022-07-18T14:06:53;37.30;21.20
46720;DHT22;32452;51.382;-0.002;2022-07-18T14:09:39;37.30;21.20
46720;DHT22;32452;51.382;-0.002;2022-07-18T14:12:25;37.20;20.80
46720;DHT22;32452;51.382;-0.002;2022-07-18T14:15:11;37.20;20.80
46720;DHT22;32452;51.382;-0.002;2022-07-18T14:17:57;37.10;21.20
46720;DHT22;32452;51.382;-0.002;2022-07-18T14:20:43;37.10;21.20
46720;DHT22;32452;51.382;-0.002;2022-07-18T14:23:28;37.10;21.50
46720;DHT22;32452;51.382;-0.002;2022-07-18T14:26:14;37.10;21.30
46720;DHT22;32452;51.382;-0.002;2022-07-18T14:28:59;37.00;21.20
46720;DHT22;32452;51.382;-0.002;2022-07-18T14:31:45;37.10;21.60
46720;DHT22;32452;51.382;-0.002;2022-07-18T14:34:33;37.00;21.30
46720;DHT22;32452;51.382;-0.002;2022-07-18T14:37:19;37.10;21.00
46720;DHT22;32452;51.382;-0.002;2022-07-18T14:40:05;37.10;21.10
46720;DHT22;32452;51.382;-0.002;2022-07-18T14:42:51;37.00;21.20
46720;DHT22;32452;51.382;-0.002;2022-07-18T14:45:37;37.00;21.40
46720;DHT22;32452;51.382;-0.002;2022-07-18T14:48:42;36.90;21.30
46720;DHT22;32452;51.382;-0.002;2022-07-18T14:51:27;36.80;21.40
46720;DHT22;32452;51.382;-0.002;2022-07-18T14:54:13;36.70;21.20
46720;DHT22;32452;51.382;-0.002;2022-07-18T14:56:59;36.50;21.30
46720;DHT22;32452;51.382;-0.002;2022-07-18T14:59:48;36.50;21.80
46720;DHT22;32452;51.382;-0.002;2022-07-18T15:02:34;36.50;21.70
46720;DHT22;32452;51.382;-0.002;2022-07-18T15:05:20;36.50;21.40
46720;DHT22;32452;51.382;-0.002;2022-07-18T15:08:06;36.50;21.20
46720;DHT22;32452;51.382;-0.002;2022-07-18T15:10:52;36.50;21.40
46720;DHT22;32452;51.382;-0.002;2022-07-18T15:13:37;36.50;21.10
46720;DHT22;32452;51.382;-0.002;2022-07-18T15:16:23;36.50;21.20
46720;DHT22;32452;51.382;-0.002;2022-07-18T15:19:09;36.40;21.10
46720;DHT22;32452;51.382;-0.002;2022-07-18T15:21:54;36.40;21.20
46720;DHT22;32452;51.382;-0.002;2022-07-18T15:24:41;36.40;20.90
46720;DHT22;32452;51.382;-0.002;2022-07-18T15:27:27;36.30;20.90
46720;DHT22;32452;51.382;-0.002;2022-07-18T15:30:12;36.30;20.80
46720;DHT22;32452;51.382;-0.002;2022-07-18T15:33:21;36.20;20.70
46720;DHT22;32452;51.382;-0.002;2022-07-18T15:36:10;36.10;20.70
46720;DHT22;32452;51.382;-0.002;2022-07-18T15:38:59;36.10;20.80
46720;DHT22;32452;51.382;-0.002;2022-07-18T15:41:46;36.10;20.80
46720;DHT22;32452;51.382;-0.002;2022-07-18T15:44:33;36.00;20.70
46720;DHT22;32452;51.382;-0.002;2022-07-18T15:47:23;35.90;20.60
46720;DHT22;32452;51.382;-0.002;2022-07-18T15:50:09;35.90;20.90
46720;DHT22;32452;51.382;-0.002;2022-07-18T15:52:54;35.80;21.30
46720;DHT22;32452;51.382;-0.002;2022-07-18T15:55:40;35.80;21.60
46720;DHT22;32452;51.382;-0.002;2022-07-18T15:58:26;35.70;21.60
46720;DHT22;32452;51.382;-0.002;2022-07-18T16:01:12;35.70;21.90
46720;DHT22;32452;51.382;-0.002;2022-07-18T16:03:59;35.60;22.20
46720;DHT22;32452;51.382;-0.002;2022-07-18T16:06:45;35.60;22.50
46720;DHT22;32452;51.382;-0.002;2022-07-18T16:09:31;35.50;22.40
46720;DHT22;32452;51.382;-0.002;2022-07-18T16:12:17;35.50;22.40
46720;DHT22;32452;51.382;-0.002;2022-07-18T16:15:03;35.40;22.60
46720;DHT22;32452;51.382;-0.002;2022-07-18T16:17:49;35.30;22.70
46720;DHT22;32452;51.382;-0.002;2022-07-18T16:20:41;35.20;22.80
46720;DHT22;32452;51.382;-0.002;2022-07-18T16:23:27;35.00;23.00
46720;DHT22;32452;51.382;-0.002;2022-07-18T16:26:12;34.90;23.00
46720;DHT22;32452;51.382;-0.002;2022-07-18T16:28:58;34.90;23.10
46720;DHT22;32452;51.382;-0.002;2022-07-18T16:31:43;34.90;23.30
46720;DHT22;32452;51.382;-0.002;2022-07-18T16:34:29;34.70;23.60
46720;DHT22;32452;51.382;-0.002;2022-07-18T16:37:15;34.60;23.80
46720;DHT22;32452;51.382;-0.002;2022-07-18T16:40:01;34.60;24.00
46720;DHT22;32452;51.382;-0.002;2022-07-18T16:42:47;34.50;24.20
46720;DHT22;32452;51.382;-0.002;2022-07-18T16:45:33;34.40;24.30
46720;DHT22;32452;51.382;-0.002;2022-07-18T16:48:19;34.30;24.50
46720;DHT22;32452;51.382;-0.002;2022-07-18T16:51:06;34.20;24.50
46720;DHT22;32452;51.382;-0.002;2022-07-18T16:53:52;34.10;24.60
46720;DHT22;32452;51.382;-0.002;2022-07-18T16:56:40;34.10;24.70
46720;DHT22;32452;51.382;-0.002;2022-07-18T16:59:26;34.10;24.80
46720;DHT22;32452;51.382;-0.002;2022-07-18T17:02:11;34.00;24.90
46720;DHT22;32452;51.382;-0.002;2022-07-18T17:04:58;34.00;24.90
46720;DHT22;32452;51.382;-0.002;2022-07-18T17:07:44;33.90;25.00
46720;DHT22;32452;51.382;-0.002;2022-07-18T17:10:31;34.00;25.10
46720;DHT22;32452;51.382;-0.002;2022-07-18T17:13:18;34.00;25.10
46720;DHT22;32452;51.382;-0.002;2022-07-18T17:16:04;34.00;25.00
46720;DHT22;32452;51.382;-0.002;2022-07-18T17:18:50;34.00;24.90
46720;DHT22;32452;51.382;-0.002;2022-07-18T17:21:36;33.90;24.90
46720;DHT22;32452;51.382;-0.002;2022-07-18T17:24:22;33.90;24.90